Contact Us:
Email: info@sawbill.com
Phone: (218)663-7150
Fax: (218)663-7980
Mail: 4620 Sawbill Trail
Box 2129
Tofte, MN 55615


Powered by
Movable Type 3.15
 
Sawbill Weather History
Check out the 7 Day Weather Forecast for the Superior National Forest.
Date High
Temperature
Low
Temperature
Barometric
Pressure
Relative
Humidity 7AM
9 AM
Temperature
Moisture Snow
12/15/14 38 18 30.02 74% 18 .39" 4"
12/14/14 35 34 29.90 98% 35 .15"
12/13/14 35 33 30.00 79% 35 0
12/12/14 34 21 30.02 79% 32 Trace Trace
12/11/14 24 20 30.10 82% 22 0
12/10/14 24 18 30.14 84% 20 0
12/9/14 23 11 30.34 89% 23 Trace Trace
12/8/14 32 11 30.34 67% 11 .1" 1"
12/7/14 29 26 29.98 92% 29 .23" 2"
12/6/14 26 6 30.34 51% 26 0
12/5/14 29 5 30.41 64% 6 0
12/4/14 21 7 30.10 60% 13 0
12/3/14 14 -2 30.12 54% 7 0
12/2/14 16 0 29.92 75% 8 0
12/1/14 10 -9 30.02 63% 10 0
11/30/14 7 -10 30.36 63% -9 0
11/29/14 27 1 29.94 63% 1 Trace Trace
11/28/14 21 7 29.74 87% 21 .1" .5"
11/27/14 7 -9 30.09 59% 7 0
11/26/14 16 -9 30.12 66% -9 0
11/25/14 17 6 30.10 73% 14 Trace Trace
11/24/14 23 6 29.96 70% 7 .09" 1"
11/23/14 38 23 29.56 75% 23 .12" 1"
11/22/14 35 31 29.72 98% 34 Trace Trace
11/21/14 31 7 29.80 90% 31 0
11/20/14 7 0 30.04 59% 7 0
11/19/14 17 2 29.91 59% 2 .06" .5"
11/18/14 11 4 29.76 60% 11 .07" .5"
11/17/14 11 3 29.86 60% 4 .06" .5"
11/16/14 20 8 29.80 60% 8 .11" 1.5"
11/15/14 23 6 29.86 56% 10 0
11/14/14 26 6 30.08 59% 6 0
11/13/14 20 8 30.16 62% 9 Trace Trace
11/12/14 23 18 30.12 58% 20 .07" 1"
11/11/14 21 16 30.06 76% 21 .09" 1.5"
11/10/14 23 15 30.04 61% 16 .09" 1.25"
11/9/14 30 16 29.90 66% 17 Trace Trace
11/8/14 30 19 29.81 59% 19 .04" .4"
11/7/14 34 30 29.85 78% 30 .18" 1.5"
11/6/14 38 30 30.03 83% 31 Trace Trace
11/5/14 34 30 30.10 65% 31 0
11/4/14 36 32 30.02 63% 32 Trace Trace
11/3/14 45 29 29.82 96% 36 .34"
11/2/14 46 33 30.00 73% 37 0
11/1/14 34 18 30.08 61% 32 0
10/31/14 31 14 30.30 71% 18 0
10/30/14 39 23 30.36 64% 25 .13" 1"
10/29/14 38 34 30.00 90% 35 .03"
10/28/14 41 35 29.98 94% 34 Trace
10/27/14 53 40 29.72 88% 41 .07"
10/26/14 51 33 29.80 77% 40 .16"
10/25/14 51 33 30.00 70% 33 0
10/24/14 61 45 29.86 51% 46 0
10/23/14 51 44 29.96 98% 45 .06"
10/22/14 49 37 30.00 87% 44 .03"
10/21/14 39 35 30.16 96% 37 0
10/20/14 45 35 30.14 73% 35 .04"
10/19/14 52 34 29.98 84% 44 Trace
10/18/14 42 30 29.98 93% 34 0
10/17/14 45 30 30.10 74% 30 .08"
10/16/14 54 32 29.78 94% 43 0
10/15/14 57 32 29.92 73% 32 0
10/14/14 58 35 30.05 78% 35 0
10/13/14 50 40 29.98 96% 43 .04"
10/12/14 54 33 29.92 82% 40 0
10/11/14 52 28 29.98 77% 33 0
10/10/14 47 29 30.14 75% 29 0
10/9/14 45 37 30.12 76% 39 Trace
10/8/14 42 33 30.02 86% 38 .02"
10/7/14 41 34 29.84 90% 34 .18" Trace
10/6/14 47 36 29.64 68% 36 Trace
10/5/14 44 33 29.56 57% 36 0
10/4/14 39 33 29.66 92% 34 .2" Trace
10/3/14 50 37 29.72 81% 37 .17"
10/2/14 49 38 29.88 80% 38 .12"
10/1/14 59 50 29.27 98% 48 .53"
9/30/14 51 38 29.96 98% 44 0
9/29/14 45 37 30.10 88% 38 Trace
9/28/14 76 37 30.00 93% 38 .4"
9/27/14 75 49 30.08 88% 59 0
9/26/14 72 48 30.14 85% 49 0
9/25/14 63 47 30.21 94% 50 0
9/24/14 62 47 30.16 85% 55 Trace
9/23/14 70 45 30.14 86% 47 0
9/22/14 66 46 30.12 86% 49 Trace
9/21/14 55 43 30.10 96% 46 Trace
9/20/14 61 44 30.00 77% 45 .03"
9/19/14 60 48 29.74 98% 59 .33"
9/18/14 48 38 29.94 98% 48 .09"
9/17/14 51 38 30.10 85% 38 .04"
9/16/14 60 43 29.96 85% 48 0
9/15/14 53 40 30.02 74% 43 .02"
9/14/14 53 42 30.06 94% 45 .05"
9/13/14 52 41 30.00 93% 45 .05"
9/12/14 49 41 30.20 78% 41 0
9/11/14 48 38 30.22 96% 40 .03"
9/10/14 44 38 30.08 96% 40 .03"
9/9/14 67 40 29.98 98% 40 .52"
9/8/14 70 48 29.96 89% 58 0
9/7/14 74 52 30.02 73% 56 0
9/6/14 63 50 30.04 80% 53 0
9/5/14 61 47 30.04 91% 50 .02"
9/4/14 69 53 29.94 88% 55 .19"
9/3/14 67 51 29.92 94% 53 .15"
9/2/14 68 51 29.88 88% 52 .14"
9/1/14 65 52 29.86 92% 52 .05"
8/31/14 63 53 29.72 98% 61 .65"
8/30/14 63 53 29.94 93% 53 .02"
8/29/14 59 56 29.88 98% 58 .93"
8/28/14 68 48 29.96 85% 56 0
8/27/14 64 48 30.10 76% 48 0
8/26/14 61 48 30.10 79% 48 .01"
8/25/14 76 51 30.00 76% 51 .02"
8/24/14 72 62 29.92 98% 64 .02"
8/23/14 69 62 30.00 98% 63 .02"
8/22/14 67 61 30.06 95% 62 .02"
8/21/14 67 59 30.00 97% 61 .02"
8/20/14 67 59 30.00 97% 59 Trace
8/19/14 63 56 29.92 96% 59 Trace
8/18/14 60 56 29.82 98% 56 .63"
8/17/14 64 53 29.90 94% 56 .03"
8/16/14 71 53 30.03 80% 53 .02"
8/15/14 77 58 29.93 90% 64 .16"
8/14/14 67 47 30.01 91% 55 0
8/13/14 65 43 30.12 79% 58 .02"
8/12/14 70 54 30.04 86% 55 0
8/11/14 65 53 30.00 96% 54 .03"
8/10/14 74 54 30.02 98% 60 1.1"
8/9/14 76 54 30.10 73% 54 0
8/8/14 76 50 30.14 83% 61 0
8/7/14 76 50 30.08 90% 55 0
8/6/14 73 50 30.12 73% 50 0
8/5/14 73 50 30.10 87% 51 .21"
8/4/14 69 49 30.10 75% 50 0
8/3/14 72 52 30.10 88% 55 .17"
8/2/14 76 48 30.10 87% 62 0
8/1/14 77 47 30.04 76% 57 0
7/31/14 72 50 30.03 77% 58 .01"
7/30/14 71 50 30.01 81% 59 .03"
7/29/14 69 47 30.02 86% 50 .25"
 


Home I Trip Planning I Rentals and Outfitting I Reservations I Campgrounds I Sawbill Store I Sawbill News I Contact

© 1997 - 2014, Sawbill Canoe Outfitters, Inc. I Privacy Policy